sensor_id;sensor_type;location;lat;lon;timestamp;P1;durP1;ratioP1;P2;durP2;ratioP2
26106;SDS011;13866;50.748;12.630;2024-01-30T00:01:09;5.90;;;5.70;;
26106;SDS011;13866;50.748;12.630;2024-01-30T00:03:35;6.53;;;5.47;;
26106;SDS011;13866;50.748;12.630;2024-01-30T00:06:00;5.00;;;4.73;;
26106;SDS011;13866;50.748;12.630;2024-01-30T00:08:28;4.80;;;4.60;;
26106;SDS011;13866;50.748;12.630;2024-01-30T00:10:53;4.17;;;4.07;;
26106;SDS011;13866;50.748;12.630;2024-01-30T00:13:19;4.33;;;4.13;;
26106;SDS011;13866;50.748;12.630;2024-01-30T00:15:44;4.37;;;4.20;;
26106;SDS011;13866;50.748;12.630;2024-01-30T00:18:10;4.20;;;4.00;;
26106;SDS011;13866;50.748;12.630;2024-01-30T00:20:36;4.07;;;3.63;;
26106;SDS011;13866;50.748;12.630;2024-01-30T00:23:01;3.50;;;3.47;;
26106;SDS011;13866;50.748;12.630;2024-01-30T00:25:26;3.73;;;3.63;;
26106;SDS011;13866;50.748;12.630;2024-01-30T00:27:52;3.87;;;3.67;;
26106;SDS011;13866;50.748;12.630;2024-01-30T00:30:17;3.10;;;3.10;;
26106;SDS011;13866;50.748;12.630;2024-01-30T00:32:43;3.97;;;3.77;;
26106;SDS011;13866;50.748;12.630;2024-01-30T00:35:08;3.63;;;3.63;;
26106;SDS011;13866;50.748;12.630;2024-01-30T00:37:35;4.37;;;4.23;;
26106;SDS011;13866;50.748;12.630;2024-01-30T00:40:00;3.27;;;3.27;;
26106;SDS011;13866;50.748;12.630;2024-01-30T00:42:26;4.27;;;4.17;;
26106;SDS011;13866;50.748;12.630;2024-01-30T00:44:52;3.90;;;3.80;;
26106;SDS011;13866;50.748;12.630;2024-01-30T00:47:17;4.30;;;4.07;;
26106;SDS011;13866;50.748;12.630;2024-01-30T00:49:43;3.50;;;3.50;;
26106;SDS011;13866;50.748;12.630;2024-01-30T00:52:08;4.47;;;4.27;;
26106;SDS011;13866;50.748;12.630;2024-01-30T00:54:34;3.57;;;3.47;;
26106;SDS011;13866;50.748;12.630;2024-01-30T00:56:59;4.70;;;4.50;;
26106;SDS011;13866;50.748;12.630;2024-01-30T00:59:25;4.10;;;3.90;;
26106;SDS011;13866;50.748;12.630;2024-01-30T01:01:50;4.17;;;3.97;;
26106;SDS011;13866;50.748;12.630;2024-01-30T01:04:16;4.10;;;3.90;;
26106;SDS011;13866;50.748;12.630;2024-01-30T01:06:42;4.67;;;4.40;;
26106;SDS011;13866;50.748;12.630;2024-01-30T01:09:09;3.83;;;3.73;;
26106;SDS011;13866;50.748;12.630;2024-01-30T01:11:37;4.60;;;4.30;;
26106;SDS011;13866;50.748;12.630;2024-01-30T01:14:03;4.80;;;4.70;;
26106;SDS011;13866;50.748;12.630;2024-01-30T01:16:29;4.37;;;4.27;;
26106;SDS011;13866;50.748;12.630;2024-01-30T01:18:55;4.07;;;3.90;;
26106;SDS011;13866;50.748;12.630;2024-01-30T01:21:20;5.87;;;5.57;;
26106;SDS011;13866;50.748;12.630;2024-01-30T01:23:46;4.43;;;4.23;;
26106;SDS011;13866;50.748;12.630;2024-01-30T01:26:11;5.03;;;4.73;;
26106;SDS011;13866;50.748;12.630;2024-01-30T01:28:39;5.17;;;4.97;;
26106;SDS011;13866;50.748;12.630;2024-01-30T01:31:05;4.40;;;4.20;;
26106;SDS011;13866;50.748;12.630;2024-01-30T01:33:31;4.10;;;4.00;;
26106;SDS011;13866;50.748;12.630;2024-01-30T01:35:58;5.03;;;4.83;;
26106;SDS011;13866;50.748;12.630;2024-01-30T01:38:23;5.63;;;4.10;;
26106;SDS011;13866;50.748;12.630;2024-01-30T01:40:49;4.00;;;3.80;;
26106;SDS011;13866;50.748;12.630;2024-01-30T01:43:15;5.97;;;4.40;;
26106;SDS011;13866;50.748;12.630;2024-01-30T01:45:40;3.63;;;3.53;;
26106;SDS011;13866;50.748;12.630;2024-01-30T01:48:06;4.30;;;4.10;;
26106;SDS011;13866;50.748;12.630;2024-01-30T01:50:33;4.40;;;4.30;;
26106;SDS011;13866;50.748;12.630;2024-01-30T01:52:58;4.07;;;3.87;;
26106;SDS011;13866;50.748;12.630;2024-01-30T01:55:24;4.03;;;3.90;;
26106;SDS011;13866;50.748;12.630;2024-01-30T01:57:52;7.70;;;4.00;;
26106;SDS011;13866;50.748;12.630;2024-01-30T02:00:18;4.40;;;4.30;;
26106;SDS011;13866;50.748;12.630;2024-01-30T02:02:45;4.30;;;4.10;;
26106;SDS011;13866;50.748;12.630;2024-01-30T02:05:11;3.30;;;3.20;;
26106;SDS011;13866;50.748;12.630;2024-01-30T02:07:37;3.67;;;3.57;;
26106;SDS011;13866;50.748;12.630;2024-01-30T02:10:03;3.70;;;3.43;;
26106;SDS011;13866;50.748;12.630;2024-01-30T02:12:28;3.30;;;3.10;;
26106;SDS011;13866;50.748;12.630;2024-01-30T02:14:54;3.50;;;3.40;;
26106;SDS011;13866;50.748;12.630;2024-01-30T02:17:20;2.93;;;2.93;;
26106;SDS011;13866;50.748;12.630;2024-01-30T02:19:46;5.07;;;3.73;;
26106;SDS011;13866;50.748;12.630;2024-01-30T02:22:11;2.67;;;2.47;;
26106;SDS011;13866;50.748;12.630;2024-01-30T02:24:38;2.50;;;2.50;;
26106;SDS011;13866;50.748;12.630;2024-01-30T02:27:03;2.40;;;2.40;;
26106;SDS011;13866;50.748;12.630;2024-01-30T02:29:29;3.03;;;2.83;;
26106;SDS011;13866;50.748;12.630;2024-01-30T02:31:54;2.43;;;2.43;;
26106;SDS011;13866;50.748;12.630;2024-01-30T02:34:20;3.07;;;3.00;;
26106;SDS011;13866;50.748;12.630;2024-01-30T02:36:46;2.90;;;2.80;;
26106;SDS011;13866;50.748;12.630;2024-01-30T02:39:11;3.73;;;3.03;;
26106;SDS011;13866;50.748;12.630;2024-01-30T02:41:37;2.70;;;2.70;;
26106;SDS011;13866;50.748;12.630;2024-01-30T02:44:03;2.50;;;2.50;;
26106;SDS011;13866;50.748;12.630;2024-01-30T02:46:29;2.70;;;2.70;;
26106;SDS011;13866;50.748;12.630;2024-01-30T02:48:54;2.77;;;2.60;;
26106;SDS011;13866;50.748;12.630;2024-01-30T02:51:20;2.80;;;2.80;;
26106;SDS011;13866;50.748;12.630;2024-01-30T02:53:46;2.53;;;2.53;;
26106;SDS011;13866;50.748;12.630;2024-01-30T02:56:11;3.20;;;3.10;;
26106;SDS011;13866;50.748;12.630;2024-01-30T02:58:38;2.60;;;2.60;;
26106;SDS011;13866;50.748;12.630;2024-01-30T03:01:04;3.10;;;3.03;;
26106;SDS011;13866;50.748;12.630;2024-01-30T03:03:30;3.37;;;3.17;;
26106;SDS011;13866;50.748;12.630;2024-01-30T03:05:55;2.90;;;2.80;;
26106;SDS011;13866;50.748;12.630;2024-01-30T03:08:21;2.73;;;2.63;;
26106;SDS011;13866;50.748;12.630;2024-01-30T03:10:46;3.10;;;2.87;;
26106;SDS011;13866;50.748;12.630;2024-01-30T03:13:12;2.80;;;2.77;;
26106;SDS011;13866;50.748;12.630;2024-01-30T03:15:37;3.10;;;2.97;;
26106;SDS011;13866;50.748;12.630;2024-01-30T03:18:03;2.90;;;2.77;;
26106;SDS011;13866;50.748;12.630;2024-01-30T03:20:29;2.43;;;2.40;;
26106;SDS011;13866;50.748;12.630;2024-01-30T03:22:54;3.80;;;3.50;;
26106;SDS011;13866;50.748;12.630;2024-01-30T03:25:20;4.10;;;3.90;;
26106;SDS011;13866;50.748;12.630;2024-01-30T03:27:46;8.60;;;6.73;;
26106;SDS011;13866;50.748;12.630;2024-01-30T03:30:12;5.60;;;4.60;;
26106;SDS011;13866;50.748;12.630;2024-01-30T03:32:37;3.57;;;3.47;;
26106;SDS011;13866;50.748;12.630;2024-01-30T03:35:03;3.80;;;3.60;;
26106;SDS011;13866;50.748;12.630;2024-01-30T03:37:28;3.40;;;3.30;;
26106;SDS011;13866;50.748;12.630;2024-01-30T03:39:54;3.07;;;2.87;;
26106;SDS011;13866;50.748;12.630;2024-01-30T03:42:20;2.97;;;2.90;;
26106;SDS011;13866;50.748;12.630;2024-01-30T03:44:45;3.47;;;3.43;;
26106;SDS011;13866;50.748;12.630;2024-01-30T03:47:11;2.23;;;2.17;;
26106;SDS011;13866;50.748;12.630;2024-01-30T03:49:36;2.90;;;2.90;;
26106;SDS011;13866;50.748;12.630;2024-01-30T03:52:02;2.97;;;2.67;;
26106;SDS011;13866;50.748;12.630;2024-01-30T03:54:27;2.77;;;2.67;;
26106;SDS011;13866;50.748;12.630;2024-01-30T03:56:53;2.80;;;2.80;;
26106;SDS011;13866;50.748;12.630;2024-01-30T03:59:19;2.87;;;2.87;;
26106;SDS011;13866;50.748;12.630;2024-01-30T04:01:48;2.50;;;2.30;;
26106;SDS011;13866;50.748;12.630;2024-01-30T04:04:15;3.17;;;3.00;;
26106;SDS011;13866;50.748;12.630;2024-01-30T04:06:41;2.80;;;2.70;;
26106;SDS011;13866;50.748;12.630;2024-01-30T04:09:06;2.53;;;2.43;;
26106;SDS011;13866;50.748;12.630;2024-01-30T04:11:32;2.20;;;2.20;;
26106;SDS011;13866;50.748;12.630;2024-01-30T04:13:57;2.70;;;2.50;;
26106;SDS011;13866;50.748;12.630;2024-01-30T04:16:23;2.60;;;2.50;;
26106;SDS011;13866;50.748;12.630;2024-01-30T04:18:48;2.60;;;2.60;;
26106;SDS011;13866;50.748;12.630;2024-01-30T04:21:14;3.33;;;3.23;;
26106;SDS011;13866;50.748;12.630;2024-01-30T04:23:40;2.23;;;2.23;;
26106;SDS011;13866;50.748;12.630;2024-01-30T04:26:06;2.20;;;2.20;;
26106;SDS011;13866;50.748;12.630;2024-01-30T04:28:31;2.40;;;2.40;;
26106;SDS011;13866;50.748;12.630;2024-01-30T04:30:57;2.67;;;2.67;;
26106;SDS011;13866;50.748;12.630;2024-01-30T04:33:23;2.50;;;2.50;;
26106;SDS011;13866;50.748;12.630;2024-01-30T04:35:48;3.10;;;2.90;;
26106;SDS011;13866;50.748;12.630;2024-01-30T04:38:13;4.10;;;3.80;;
26106;SDS011;13866;50.748;12.630;2024-01-30T04:40:39;4.77;;;4.27;;
26106;SDS011;13866;50.748;12.630;2024-01-30T04:43:05;4.80;;;4.40;;
26106;SDS011;13866;50.748;12.630;2024-01-30T04:45:30;5.03;;;4.53;;
26106;SDS011;13866;50.748;12.630;2024-01-30T04:47:56;3.67;;;3.47;;
26106;SDS011;13866;50.748;12.630;2024-01-30T04:50:21;3.33;;;3.03;;
26106;SDS011;13866;50.748;12.630;2024-01-30T04:52:47;4.10;;;3.90;;
26106;SDS011;13866;50.748;12.630;2024-01-30T04:55:13;3.10;;;3.00;;
26106;SDS011;13866;50.748;12.630;2024-01-30T04:57:38;2.90;;;2.90;;
26106;SDS011;13866;50.748;12.630;2024-01-30T05:00:04;4.73;;;3.63;;
26106;SDS011;13866;50.748;12.630;2024-01-30T05:02:30;3.10;;;3.00;;
26106;SDS011;13866;50.748;12.630;2024-01-30T05:04:56;3.60;;;3.50;;
26106;SDS011;13866;50.748;12.630;2024-01-30T05:07:22;2.80;;;2.60;;
26106;SDS011;13866;50.748;12.630;2024-01-30T05:09:47;2.13;;;2.13;;
26106;SDS011;13866;50.748;12.630;2024-01-30T05:12:13;2.57;;;2.53;;
26106;SDS011;13866;50.748;12.630;2024-01-30T05:14:39;2.83;;;2.83;;
26106;SDS011;13866;50.748;12.630;2024-01-30T05:17:04;3.40;;;3.30;;
26106;SDS011;13866;50.748;12.630;2024-01-30T05:19:29;2.53;;;2.53;;
26106;SDS011;13866;50.748;12.630;2024-01-30T05:21:55;3.63;;;3.53;;
26106;SDS011;13866;50.748;12.630;2024-01-30T05:24:20;2.87;;;2.77;;
26106;SDS011;13866;50.748;12.630;2024-01-30T05:26:46;3.70;;;3.70;;
26106;SDS011;13866;50.748;12.630;2024-01-30T05:29:13;4.57;;;4.47;;
26106;SDS011;13866;50.748;12.630;2024-01-30T05:31:38;2.83;;;2.73;;
26106;SDS011;13866;50.748;12.630;2024-01-30T05:34:04;2.13;;;2.10;;
26106;SDS011;13866;50.748;12.630;2024-01-30T05:36:29;2.20;;;2.20;;
26106;SDS011;13866;50.748;12.630;2024-01-30T05:38:55;2.30;;;2.30;;
26106;SDS011;13866;50.748;12.630;2024-01-30T05:41:22;2.47;;;2.37;;
26106;SDS011;13866;50.748;12.630;2024-01-30T05:43:47;2.43;;;2.33;;
26106;SDS011;13866;50.748;12.630;2024-01-30T05:46:13;2.43;;;2.33;;
26106;SDS011;13866;50.748;12.630;2024-01-30T05:48:38;2.67;;;2.57;;
26106;SDS011;13866;50.748;12.630;2024-01-30T05:51:04;2.30;;;2.30;;
26106;SDS011;13866;50.748;12.630;2024-01-30T05:53:30;1.90;;;1.90;;
26106;SDS011;13866;50.748;12.630;2024-01-30T05:55:55;1.97;;;1.90;;
26106;SDS011;13866;50.748;12.630;2024-01-30T05:58:21;1.97;;;1.97;;
26106;SDS011;13866;50.748;12.630;2024-01-30T06:00:46;3.20;;;3.20;;
26106;SDS011;13866;50.748;12.630;2024-01-30T06:03:12;3.67;;;3.67;;
26106;SDS011;13866;50.748;12.630;2024-01-30T06:05:37;43.90;;;38.10;;
26106;SDS011;13866;50.748;12.630;2024-01-30T06:08:03;90.83;;;76.00;;
26106;SDS011;13866;50.748;12.630;2024-01-30T06:10:29;36.90;;;33.17;;
26106;SDS011;13866;50.748;12.630;2024-01-30T06:12:54;16.53;;;15.20;;
26106;SDS011;13866;50.748;12.630;2024-01-30T06:15:20;7.10;;;6.90;;
26106;SDS011;13866;50.748;12.630;2024-01-30T06:17:45;7.47;;;7.10;;
26106;SDS011;13866;50.748;12.630;2024-01-30T06:20:11;6.40;;;6.20;;
26106;SDS011;13866;50.748;12.630;2024-01-30T06:22:36;10.90;;;8.03;;
26106;SDS011;13866;50.748;12.630;2024-01-30T06:25:02;10.63;;;8.90;;
26106;SDS011;13866;50.748;12.630;2024-01-30T06:27:27;22.57;;;11.57;;
26106;SDS011;13866;50.748;12.630;2024-01-30T06:29:53;26.57;;;11.13;;
26106;SDS011;13866;50.748;12.630;2024-01-30T06:32:18;12.10;;;9.87;;
26106;SDS011;13866;50.748;12.630;2024-01-30T06:34:44;2.67;;;2.67;;
26106;SDS011;13866;50.748;12.630;2024-01-30T06:37:09;2.13;;;2.13;;
26106;SDS011;13866;50.748;12.630;2024-01-30T06:39:35;2.40;;;2.40;;
26106;SDS011;13866;50.748;12.630;2024-01-30T06:42:00;2.70;;;2.60;;
26106;SDS011;13866;50.748;12.630;2024-01-30T06:44:26;2.37;;;2.27;;
26106;SDS011;13866;50.748;12.630;2024-01-30T06:46:51;3.13;;;2.30;;
26106;SDS011;13866;50.748;12.630;2024-01-30T06:49:17;3.20;;;3.10;;
26106;SDS011;13866;50.748;12.630;2024-01-30T06:51:43;8.03;;;6.30;;
26106;SDS011;13866;50.748;12.630;2024-01-30T06:54:08;7.30;;;5.80;;
26106;SDS011;13866;50.748;12.630;2024-01-30T06:56:34;3.63;;;3.53;;
26106;SDS011;13866;50.748;12.630;2024-01-30T06:58:59;3.77;;;3.67;;
26106;SDS011;13866;50.748;12.630;2024-01-30T07:01:28;2.90;;;2.90;;
26106;SDS011;13866;50.748;12.630;2024-01-30T07:03:54;3.27;;;3.07;;
26106;SDS011;13866;50.748;12.630;2024-01-30T07:06:20;2.93;;;2.83;;
26106;SDS011;13866;50.748;12.630;2024-01-30T07:08:45;2.73;;;2.73;;
26106;SDS011;13866;50.748;12.630;2024-01-30T07:11:11;3.30;;;3.20;;
26106;SDS011;13866;50.748;12.630;2024-01-30T07:13:47;3.00;;;3.00;;
26106;SDS011;13866;50.748;12.630;2024-01-30T07:16:13;2.40;;;2.40;;
26106;SDS011;13866;50.748;12.630;2024-01-30T07:18:42;3.47;;;3.27;;
26106;SDS011;13866;50.748;12.630;2024-01-30T07:21:08;3.60;;;2.73;;
26106;SDS011;13866;50.748;12.630;2024-01-30T07:23:34;3.70;;;3.70;;
26106;SDS011;13866;50.748;12.630;2024-01-30T07:26:00;3.37;;;3.10;;
26106;SDS011;13866;50.748;12.630;2024-01-30T07:28:26;3.20;;;3.20;;
26106;SDS011;13866;50.748;12.630;2024-01-30T07:30:51;4.30;;;4.20;;
26106;SDS011;13866;50.748;12.630;2024-01-30T07:33:24;6.20;;;5.70;;
26106;SDS011;13866;50.748;12.630;2024-01-30T07:35:57;3.87;;;3.77;;
26106;SDS011;13866;50.748;12.630;2024-01-30T07:38:23;4.53;;;4.00;;
26106;SDS011;13866;50.748;12.630;2024-01-30T07:40:48;8.93;;;3.73;;
26106;SDS011;13866;50.748;12.630;2024-01-30T07:43:14;4.30;;;4.20;;
26106;SDS011;13866;50.748;12.630;2024-01-30T07:45:39;4.70;;;4.50;;
26106;SDS011;13866;50.748;12.630;2024-01-30T07:48:05;3.97;;;3.77;;
26106;SDS011;13866;50.748;12.630;2024-01-30T07:50:31;4.87;;;4.57;;
26106;SDS011;13866;50.748;12.630;2024-01-30T07:52:59;4.07;;;3.97;;
26106;SDS011;13866;50.748;12.630;2024-01-30T07:55:25;4.80;;;4.40;;
26106;SDS011;13866;50.748;12.630;2024-01-30T07:57:53;5.20;;;4.90;;
26106;SDS011;13866;50.748;12.630;2024-01-30T08:00:20;3.83;;;3.50;;
26106;SDS011;13866;50.748;12.630;2024-01-30T08:02:46;4.40;;;4.20;;
26106;SDS011;13866;50.748;12.630;2024-01-30T08:05:11;4.27;;;3.93;;
26106;SDS011;13866;50.748;12.630;2024-01-30T08:07:39;4.60;;;4.50;;
26106;SDS011;13866;50.748;12.630;2024-01-30T08:10:05;4.20;;;3.90;;
26106;SDS011;13866;50.748;12.630;2024-01-30T08:12:31;8.70;;;3.40;;
26106;SDS011;13866;50.748;12.630;2024-01-30T08:14:56;3.03;;;2.93;;
26106;SDS011;13866;50.748;12.630;2024-01-30T08:17:22;3.23;;;3.23;;
26106;SDS011;13866;50.748;12.630;2024-01-30T08:19:47;3.60;;;3.47;;
26106;SDS011;13866;50.748;12.630;2024-01-30T08:22:13;3.37;;;3.27;;
26106;SDS011;13866;50.748;12.630;2024-01-30T08:24:38;3.83;;;3.63;;
26106;SDS011;13866;50.748;12.630;2024-01-30T08:27:06;5.37;;;5.07;;
26106;SDS011;13866;50.748;12.630;2024-01-30T08:29:35;7.03;;;4.13;;
26106;SDS011;13866;50.748;12.630;2024-01-30T08:32:02;4.33;;;4.13;;
26106;SDS011;13866;50.748;12.630;2024-01-30T08:34:29;4.47;;;4.37;;
26106;SDS011;13866;50.748;12.630;2024-01-30T08:36:54;4.23;;;4.13;;
26106;SDS011;13866;50.748;12.630;2024-01-30T08:39:19;2.90;;;2.80;;
26106;SDS011;13866;50.748;12.630;2024-01-30T08:41:45;3.87;;;3.67;;
26106;SDS011;13866;50.748;12.630;2024-01-30T08:44:10;4.00;;;3.13;;
26106;SDS011;13866;50.748;12.630;2024-01-30T08:46:36;3.00;;;3.00;;
26106;SDS011;13866;50.748;12.630;2024-01-30T08:49:02;3.57;;;3.37;;
26106;SDS011;13866;50.748;12.630;2024-01-30T08:51:29;2.73;;;2.73;;
26106;SDS011;13866;50.748;12.630;2024-01-30T08:53:54;2.97;;;2.87;;
26106;SDS011;13866;50.748;12.630;2024-01-30T08:56:20;3.03;;;2.83;;
26106;SDS011;13866;50.748;12.630;2024-01-30T08:58:45;3.00;;;2.90;;
26106;SDS011;13866;50.748;12.630;2024-01-30T09:01:10;2.50;;;2.47;;
26106;SDS011;13866;50.748;12.630;2024-01-30T09:03:36;2.63;;;2.53;;
26106;SDS011;13866;50.748;12.630;2024-01-30T09:06:07;2.70;;;2.60;;
26106;SDS011;13866;50.748;12.630;2024-01-30T09:08:36;2.27;;;2.27;;
26106;SDS011;13866;50.748;12.630;2024-01-30T09:11:07;2.60;;;2.60;;
26106;SDS011;13866;50.748;12.630;2024-01-30T09:13:34;2.10;;;2.00;;
26106;SDS011;13866;50.748;12.630;2024-01-30T09:16:00;3.27;;;3.17;;
26106;SDS011;13866;50.748;12.630;2024-01-30T09:18:26;2.20;;;2.20;;
26106;SDS011;13866;50.748;12.630;2024-01-30T09:20:51;2.57;;;2.57;;
26106;SDS011;13866;50.748;12.630;2024-01-30T09:23:17;2.83;;;2.73;;
26106;SDS011;13866;50.748;12.630;2024-01-30T09:25:43;2.90;;;2.90;;
26106;SDS011;13866;50.748;12.630;2024-01-30T09:28:09;3.17;;;2.67;;
26106;SDS011;13866;50.748;12.630;2024-01-30T09:30:34;2.37;;;2.37;;
26106;SDS011;13866;50.748;12.630;2024-01-30T09:33:00;3.00;;;2.90;;
26106;SDS011;13866;50.748;12.630;2024-01-30T09:35:25;3.37;;;3.27;;
26106;SDS011;13866;50.748;12.630;2024-01-30T09:37:51;3.13;;;3.03;;
26106;SDS011;13866;50.748;12.630;2024-01-30T09:40:17;3.37;;;3.27;;
26106;SDS011;13866;50.748;12.630;2024-01-30T09:42:44;3.13;;;3.03;;
26106;SDS011;13866;50.748;12.630;2024-01-30T09:45:15;2.97;;;2.87;;
26106;SDS011;13866;50.748;12.630;2024-01-30T09:47:43;3.27;;;3.10;;
26106;SDS011;13866;50.748;12.630;2024-01-30T09:50:10;4.03;;;3.87;;
26106;SDS011;13866;50.748;12.630;2024-01-30T09:52:37;3.27;;;3.17;;
26106;SDS011;13866;50.748;12.630;2024-01-30T09:55:03;3.80;;;3.50;;
26106;SDS011;13866;50.748;12.630;2024-01-30T09:57:29;2.73;;;2.73;;
26106;SDS011;13866;50.748;12.630;2024-01-30T09:59:55;3.40;;;3.30;;
26106;SDS011;13866;50.748;12.630;2024-01-30T10:02:21;3.57;;;3.47;;
26106;SDS011;13866;50.748;12.630;2024-01-30T10:04:47;3.40;;;3.30;;
26106;SDS011;13866;50.748;12.630;2024-01-30T10:07:14;3.60;;;3.47;;
26106;SDS011;13866;50.748;12.630;2024-01-30T10:09:40;3.43;;;3.30;;
26106;SDS011;13866;50.748;12.630;2024-01-30T10:12:05;4.40;;;4.03;;
26106;SDS011;13866;50.748;12.630;2024-01-30T10:14:31;4.57;;;4.37;;
26106;SDS011;13866;50.748;12.630;2024-01-30T10:16:57;4.57;;;4.37;;
26106;SDS011;13866;50.748;12.630;2024-01-30T10:19:23;4.03;;;3.83;;
26106;SDS011;13866;50.748;12.630;2024-01-30T10:21:48;3.97;;;3.87;;
26106;SDS011;13866;50.748;12.630;2024-01-30T10:24:14;5.57;;;5.17;;
26106;SDS011;13866;50.748;12.630;2024-01-30T10:26:39;5.33;;;5.00;;
26106;SDS011;13866;50.748;12.630;2024-01-30T10:29:05;3.50;;;3.23;;
26106;SDS011;13866;50.748;12.630;2024-01-30T10:31:30;4.50;;;4.23;;
26106;SDS011;13866;50.748;12.630;2024-01-30T10:33:56;4.40;;;4.10;;
26106;SDS011;13866;50.748;12.630;2024-01-30T10:36:22;4.20;;;3.90;;
26106;SDS011;13866;50.748;12.630;2024-01-30T10:38:55;3.60;;;3.47;;
26106;SDS011;13866;50.748;12.630;2024-01-30T10:41:25;3.53;;;3.43;;
26106;SDS011;13866;50.748;12.630;2024-01-30T10:43:58;4.70;;;4.50;;
26106;SDS011;13866;50.748;12.630;2024-01-30T10:46:31;5.60;;;4.07;;
26106;SDS011;13866;50.748;12.630;2024-01-30T10:48:59;4.30;;;4.10;;
26106;SDS011;13866;50.748;12.630;2024-01-30T10:51:25;4.57;;;4.37;;
26106;SDS011;13866;50.748;12.630;2024-01-30T10:53:52;4.70;;;4.30;;
26106;SDS011;13866;50.748;12.630;2024-01-30T10:56:20;4.10;;;3.73;;
26106;SDS011;13866;50.748;12.630;2024-01-30T10:58:46;4.73;;;4.30;;
26106;SDS011;13866;50.748;12.630;2024-01-30T11:01:17;5.27;;;4.93;;
26106;SDS011;13866;50.748;12.630;2024-01-30T11:03:44;4.97;;;4.60;;
26106;SDS011;13866;50.748;12.630;2024-01-30T11:06:11;5.07;;;4.80;;
26106;SDS011;13866;50.748;12.630;2024-01-30T11:08:38;4.30;;;3.90;;
26106;SDS011;13866;50.748;12.630;2024-01-30T11:11:07;3.50;;;3.40;;
26106;SDS011;13866;50.748;12.630;2024-01-30T11:13:34;4.27;;;4.17;;
26106;SDS011;13866;50.748;12.630;2024-01-30T11:16:03;4.70;;;4.50;;
26106;SDS011;13866;50.748;12.630;2024-01-30T11:18:30;4.40;;;4.00;;
26106;SDS011;13866;50.748;12.630;2024-01-30T11:20:57;3.80;;;3.60;;
26106;SDS011;13866;50.748;12.630;2024-01-30T11:23:25;6.53;;;3.70;;
26106;SDS011;13866;50.748;12.630;2024-01-30T11:25:52;4.37;;;4.10;;
26106;SDS011;13866;50.748;12.630;2024-01-30T11:28:18;3.87;;;3.73;;
26106;SDS011;13866;50.748;12.630;2024-01-30T11:30:45;4.37;;;4.07;;
26106;SDS011;13866;50.748;12.630;2024-01-30T11:33:13;7.30;;;4.63;;
26106;SDS011;13866;50.748;12.630;2024-01-30T11:35:40;5.33;;;4.97;;
26106;SDS011;13866;50.748;12.630;2024-01-30T11:38:06;4.90;;;4.60;;
26106;SDS011;13866;50.748;12.630;2024-01-30T11:40:33;4.60;;;4.20;;
26106;SDS011;13866;50.748;12.630;2024-01-30T11:43:03;4.70;;;4.60;;
26106;SDS011;13866;50.748;12.630;2024-01-30T11:45:30;4.37;;;4.27;;
26106;SDS011;13866;50.748;12.630;2024-01-30T11:47:56;5.20;;;4.83;;
26106;SDS011;13866;50.748;12.630;2024-01-30T11:50:25;5.13;;;4.83;;
26106;SDS011;13866;50.748;12.630;2024-01-30T11:52:50;5.13;;;4.93;;
26106;SDS011;13866;50.748;12.630;2024-01-30T11:55:16;4.33;;;4.23;;
26106;SDS011;13866;50.748;12.630;2024-01-30T11:57:42;5.13;;;4.63;;
26106;SDS011;13866;50.748;12.630;2024-01-30T12:00:15;4.23;;;4.03;;
26106;SDS011;13866;50.748;12.630;2024-01-30T12:02:43;4.63;;;4.33;;
26106;SDS011;13866;50.748;12.630;2024-01-30T12:05:09;3.93;;;3.63;;
26106;SDS011;13866;50.748;12.630;2024-01-30T12:07:35;4.57;;;4.37;;
26106;SDS011;13866;50.748;12.630;2024-01-30T12:10:01;8.67;;;4.73;;
26106;SDS011;13866;50.748;12.630;2024-01-30T12:12:27;5.33;;;4.90;;
26106;SDS011;13866;50.748;12.630;2024-01-30T12:14:54;4.73;;;4.43;;
26106;SDS011;13866;50.748;12.630;2024-01-30T12:17:25;5.73;;;5.20;;
26106;SDS011;13866;50.748;12.630;2024-01-30T12:22:37;5.50;;;4.60;;
26106;SDS011;13866;50.748;12.630;2024-01-30T12:25:09;4.53;;;4.20;;
26106;SDS011;13866;50.748;12.630;2024-01-30T12:27:39;5.83;;;4.40;;
26106;SDS011;13866;50.748;12.630;2024-01-30T12:30:07;4.00;;;3.90;;
26106;SDS011;13866;50.748;12.630;2024-01-30T12:32:37;4.27;;;4.07;;
26106;SDS011;13866;50.748;12.630;2024-01-30T12:35:09;4.53;;;3.97;;
26106;SDS011;13866;50.748;12.630;2024-01-30T12:37:35;6.03;;;4.23;;
26106;SDS011;13866;50.748;12.630;2024-01-30T12:40:01;4.50;;;4.30;;
26106;SDS011;13866;50.748;12.630;2024-01-30T12:42:27;7.57;;;4.20;;
26106;SDS011;13866;50.748;12.630;2024-01-30T12:44:53;3.87;;;3.60;;
26106;SDS011;13866;50.748;12.630;2024-01-30T12:47:18;5.40;;;4.90;;
26106;SDS011;13866;50.748;12.630;2024-01-30T12:49:46;4.43;;;4.20;;
26106;SDS011;13866;50.748;12.630;2024-01-30T12:52:12;5.57;;;5.17;;
26106;SDS011;13866;50.748;12.630;2024-01-30T12:54:39;10.33;;;4.87;;
26106;SDS011;13866;50.748;12.630;2024-01-30T12:57:05;4.70;;;4.20;;
26106;SDS011;13866;50.748;12.630;2024-01-30T12:59:31;4.00;;;3.80;;
26106;SDS011;13866;50.748;12.630;2024-01-30T13:01:58;4.00;;;3.77;;
26106;SDS011;13866;50.748;12.630;2024-01-30T13:04:25;4.90;;;4.60;;
26106;SDS011;13866;50.748;12.630;2024-01-30T13:06:51;7.27;;;4.20;;
26106;SDS011;13866;50.748;12.630;2024-01-30T13:09:17;4.53;;;4.23;;
26106;SDS011;13866;50.748;12.630;2024-01-30T13:11:43;7.20;;;4.67;;
26106;SDS011;13866;50.748;12.630;2024-01-30T13:14:08;5.30;;;4.83;;
26106;SDS011;13866;50.748;12.630;2024-01-30T13:16:34;5.37;;;4.83;;
26106;SDS011;13866;50.748;12.630;2024-01-30T13:18:59;4.23;;;3.93;;
26106;SDS011;13866;50.748;12.630;2024-01-30T13:21:26;8.53;;;4.23;;
26106;SDS011;13866;50.748;12.630;2024-01-30T13:23:52;4.10;;;4.00;;
26106;SDS011;13866;50.748;12.630;2024-01-30T13:26:19;4.57;;;4.23;;
26106;SDS011;13866;50.748;12.630;2024-01-30T13:28:47;4.40;;;4.17;;
26106;SDS011;13866;50.748;12.630;2024-01-30T13:31:16;4.90;;;4.60;;
26106;SDS011;13866;50.748;12.630;2024-01-30T13:33:41;4.67;;;4.27;;
26106;SDS011;13866;50.748;12.630;2024-01-30T13:36:07;6.30;;;4.67;;
26106;SDS011;13866;50.748;12.630;2024-01-30T13:38:34;4.80;;;4.70;;
26106;SDS011;13866;50.748;12.630;2024-01-30T13:40:59;4.77;;;4.20;;
26106;SDS011;13866;50.748;12.630;2024-01-30T13:43:25;11.00;;;6.33;;
26106;SDS011;13866;50.748;12.630;2024-01-30T13:45:51;7.33;;;5.87;;
26106;SDS011;13866;50.748;12.630;2024-01-30T13:48:16;5.60;;;5.30;;
26106;SDS011;13866;50.748;12.630;2024-01-30T13:50:42;4.30;;;4.10;;
26106;SDS011;13866;50.748;12.630;2024-01-30T13:53:07;4.50;;;4.20;;
26106;SDS011;13866;50.748;12.630;2024-01-30T13:55:33;3.93;;;3.83;;
26106;SDS011;13866;50.748;12.630;2024-01-30T13:57:59;4.83;;;4.37;;
26106;SDS011;13866;50.748;12.630;2024-01-30T14:00:26;4.40;;;4.10;;
26106;SDS011;13866;50.748;12.630;2024-01-30T14:02:52;4.20;;;3.93;;
26106;SDS011;13866;50.748;12.630;2024-01-30T14:05:19;5.97;;;5.10;;
26106;SDS011;13866;50.748;12.630;2024-01-30T14:07:46;4.53;;;4.10;;
26106;SDS011;13866;50.748;12.630;2024-01-30T14:10:11;4.00;;;3.77;;
26106;SDS011;13866;50.748;12.630;2024-01-30T14:12:37;5.40;;;4.97;;
26106;SDS011;13866;50.748;12.630;2024-01-30T14:15:03;6.90;;;4.60;;
26106;SDS011;13866;50.748;12.630;2024-01-30T14:17:29;5.00;;;4.70;;
26106;SDS011;13866;50.748;12.630;2024-01-30T14:19:54;5.40;;;3.90;;
26106;SDS011;13866;50.748;12.630;2024-01-30T14:22:20;4.33;;;4.13;;
26106;SDS011;13866;50.748;12.630;2024-01-30T14:24:45;4.60;;;4.30;;
26106;SDS011;13866;50.748;12.630;2024-01-30T14:27:11;5.37;;;5.07;;
26106;SDS011;13866;50.748;12.630;2024-01-30T14:29:37;7.27;;;6.93;;